Time;durP1;ratioP1;P1;durP2;ratioP2;P2;SDS_P1;SDS_P2;PMS_P1;PMS_P2;Temp;Humidity;BMP_temperature;BMP_pressure;BME280_temperature;BME280_humidity;BME280_pressure;Samples;Min_cycle;Max_cycle;Signal;HPM_P1;HPM_P2
2022/06/04 00:00:51;;;;;;;4.38;1.65;;;;;;;13.81;100.00;100541.81;7392523;19;20358;-83
2022/06/04 00:03:18;;;;;;;2.70;1.35;;;;;;;13.90;100.00;100542.50;7397114;19;20021;-83
2022/06/04 00:05:48;;;;;;;3.88;1.27;;;;;;;13.98;100.00;100531.69;7390999;19;20349;-83
2022/06/04 00:08:14;;;;;;;1.77;1.23;;;;;;;14.01;100.00;100536.34;7391625;19;20013;-83
2022/06/04 00:16:14;;;;;;;3.55;1.13;;;;;;;14.10;100.00;100539.00;7390018;19;20748;-83
2022/06/04 00:18:41;;;;;;;3.55;1.58;;;;;;;14.13;100.00;100533.22;7392688;19;20014;-83
2022/06/04 00:21:09;;;;;;;3.05;1.55;;;;;;;14.15;100.00;100536.31;7397032;19;20019;-83
2022/06/04 00:23:36;;;;;;;4.63;2.17;;;;;;;14.16;100.00;100539.91;7400432;19;20018;-83
2022/06/04 00:26:09;;;;;;;1.67;1.17;;;;;;;14.19;100.00;100541.72;7396373;19;20380;-84
2022/06/04 00:28:36;;;;;;;2.72;2.47;;;;;;;14.36;100.00;100545.59;7394987;19;20018;-83
2022/06/04 00:31:04;;;;;;;3.90;1.95;;;;;;;14.41;100.00;100553.34;7398322;19;20015;-84
2022/06/04 00:33:30;;;;;;;3.67;1.80;;;;;;;14.37;100.00;100553.53;7397330;19;20010;-83
2022/06/04 00:36:00;;;;;;;3.13;1.65;;;;;;;14.36;100.00;100554.78;7398037;19;20032;-84
2022/06/04 00:38:29;;;;;;;6.38;1.83;;;;;;;14.36;100.00;100559.59;7392721;19;20349;-83
2022/06/04 00:41:09;;;;;;;2.88;1.73;;;;;;;14.40;100.00;100557.41;7393250;19;20107;-83
2022/06/04 00:43:56;;;;;;;2.35;1.38;;;;;;;14.42;100.00;100560.50;7396472;19;20025;-83
2022/06/04 00:46:40;;;;;;;3.65;1.75;;;;;;;14.45;100.00;100559.50;7399586;19;20010;-86
2022/06/04 00:49:21;;;;;;;2.85;1.85;;;;;;;14.46;100.00;100554.69;7396649;19;20354;-86
2022/06/04 00:51:51;;;;;;;2.33;0.93;;;;;;;14.39;100.00;100550.25;7398169;19;20014;-84
2022/06/04 00:54:18;;;;;;;2.00;1.45;;;;;;;14.34;100.00;100548.88;7399598;19;20014;-83
2022/06/04 00:57:19;;;;;;;9.38;1.73;;;;;;;14.35;100.00;100552.47;7399326;19;20035;-84
2022/06/04 01:00:10;;;;;;;2.58;1.67;;;;;;;14.30;100.00;100550.34;7399166;19;20022;-85
2022/06/04 01:02:51;;;;;;;1.60;1.45;;;;;;;14.33;100.00;100564.19;7398209;19;20073;-85
2022/06/04 01:05:40;;;;;;;;;;;;;;;14.32;100.00;100550.63;7400482;19;20357;-85
2022/06/04 01:08:22;;;;;;;1.42;0.90;;;;;;;14.36;100.00;100562.41;7398794;19;19951;-85
2022/06/04 01:10:58;;;;;;;6.40;2.22;;;;;;;14.24;100.00;100555.84;7401986;19;20326;-85
2022/06/04 01:13:30;;;;;;;1.13;1.02;;;;;;;14.17;100.00;100549.84;7405849;19;20510;-87
2022/06/04 01:16:15;;;;;;;4.78;1.95;;;;;;;14.17;100.00;100552.63;7401911;19;20670;-86
2022/06/04 01:19:01;;;;;;;1.70;1.05;;;;;;;14.10;100.00;100539.00;7398430;19;20362;-87
2022/06/04 01:21:48;;;;;;;4.43;1.77;;;;;;;14.11;100.00;100540.56;7400888;19;20070;-85
2022/06/04 01:24:35;;;;;;;4.38;1.58;;;;;;;14.05;100.00;100531.31;7401654;19;20011;-86
2022/06/04 01:27:07;;;;;;;3.15;1.95;;;;;;;14.07;100.00;100534.41;7402034;19;20019;-88
2022/06/04 01:29:44;;;;;;;4.40;1.42;;;;;;;14.07;100.00;100540.78;7391965;19;20061;-85
2022/06/04 01:32:28;;;;;;;4.45;2.42;;;;;;;14.05;100.00;100542.50;7394619;19;20512;-84
2022/06/04 01:35:06;;;;;;;5.82;2.45;;;;;;;13.97;100.00;100530.91;7396553;19;20010;-84
2022/06/04 01:37:43;;;;;;;4.28;1.95;;;;;;;13.94;100.00;100536.72;7393279;19;20022;-85
2022/06/04 01:43:01;;;;;;;5.40;1.85;;;;;;;13.87;100.00;100532.25;7396111;19;20027;-84
2022/06/04 01:45:31;;;;;;;6.35;2.03;;;;;;;13.90;100.00;100538.94;7392198;19;20011;-84
2022/06/04 01:48:01;;;;;;;4.82;1.77;;;;;;;13.89;100.00;100534.56;7391870;19;20022;-84
2022/06/04 01:50:38;;;;;;;3.30;1.25;;;;;;;13.84;100.00;100529.66;7394053;19;20354;-84
2022/06/04 01:53:07;;;;;;;5.35;1.92;;;;;;;13.85;100.00;100517.97;7393253;19;20081;-84
2022/06/04 01:55:49;;;;;;;1.55;1.10;;;;;;;13.92;100.00;100522.41;7393790;19;20025;-83
2022/06/04 01:58:21;;;;;;;2.33;1.33;;;;;;;13.91;100.00;100515.25;7395970;19;20022;-84
2022/06/04 02:00:56;;;;;;;3.13;1.40;;;;;;;13.92;100.00;100522.41;7396898;19;20456;-83
2022/06/04 02:03:33;;;;;;;1.85;1.38;;;;;;;14.04;100.00;100524.16;7399268;19;20007;-83
2022/06/04 02:06:09;;;;;;;0.60;0.60;;;;;;;14.08;100.00;100513.50;7399074;19;20400;-84
2022/06/04 02:08:53;;;;;;;3.30;1.92;;;;;;;14.08;100.00;100519.13;7395535;19;20006;-84
2022/06/04 02:11:21;;;;;;;2.30;1.30;;;;;;;14.08;100.00;100524.72;7397144;19;20018;-83
2022/06/04 02:13:51;;;;;;;2.85;1.27;;;;;;;14.14;100.00;100522.81;7397307;19;20014;-84
2022/06/04 02:16:33;;;;;;;1.67;1.58;;;;;;;14.15;100.00;100535.53;7394957;19;20010;-84
2022/06/04 02:19:00;;;;;;;2.00;1.25;;;;;;;14.07;100.00;100529.56;7397761;19;20021;-84
2022/06/04 02:21:27;;;;;;;3.70;1.67;;;;;;;14.12;100.00;100514.88;7397458;19;20461;-84
2022/06/04 02:23:56;;;;;;;2.38;1.90;;;;;;;14.10;100.00;100519.41;7398893;19;20086;-84
2022/06/04 02:26:24;;;;;;;3.28;1.58;;;;;;;14.02;100.00;100521.06;7396136;19;20018;-84
2022/06/04 02:28:52;;;;;;;4.78;1.73;;;;;;;13.93;100.00;100523.94;7395763;19;20013;-84
2022/06/04 02:31:30;;;;;;;3.22;1.35;;;;;;;13.95;100.00;100516.63;7395862;19;20429;-84
2022/06/04 02:34:18;;;;;;;1.73;0.75;;;;;;;14.01;100.00;100509.06;7396051;19;20078;-85
2022/06/04 02:37:03;;;;;;;5.03;1.58;;;;;;;14.03;100.00;100533.81;7395926;19;20022;-83
2022/06/04 02:39:42;;;;;;;1.27;0.75;;;;;;;14.05;100.00;100522.91;7398323;19;20015;-85
2022/06/04 02:42:12;;;;;;;2.42;1.05;;;;;;;13.97;100.00;100513.34;7395007;19;20010;-84
2022/06/04 02:45:06;;;;;;;0.73;0.73;;;;;;;13.93;100.00;100529.53;7399454;19;20018;-84
2022/06/04 02:47:36;;;;;;;5.47;1.70;;;;;;;13.91;100.00;100532.06;7396184;19;20022;-84
2022/06/04 02:50:05;;;;;;;1.50;1.20;;;;;;;13.84;100.00;100524.06;7397318;19;20014;-83
2022/06/04 02:52:34;;;;;;;2.83;1.38;;;;;;;13.90;100.00;100531.31;7397813;19;20026;-83
2022/06/04 02:55:07;;;;;;;2.22;1.05;;;;;;;13.95;100.00;100522.22;7392386;19;20553;-84
2022/06/04 02:57:36;;;;;;;2.75;1.48;;;;;;;13.93;100.00;100524.72;7396057;19;20018;-82
2022/06/04 03:00:04;;;;;;;3.55;0.82;;;;;;;13.99;100.00;100527.63;7395241;19;20039;-82
2022/06/04 03:02:32;;;;;;;2.78;0.77;;;;;;;14.02;100.00;100521.06;7394895;19;20022;-83
2022/06/04 03:05:10;;;;;;;1.20;1.13;;;;;;;14.02;100.00;100523.84;7391964;19;20093;-83
2022/06/04 03:07:43;;;;;;;1.98;0.65;;;;;;;12.79;100.00;100511.47;7395672;19;20337;-83
2022/06/04 03:10:24;;;;;;;2.60;0.82;;;;;;;12.30;100.00;100527.88;7394865;19;20439;-82
2022/06/04 03:12:51;;;;;;;2.38;1.23;;;;;;;12.18;100.00;100513.63;7393918;19;20011;-82
2022/06/04 03:15:20;;;;;;;2.83;1.13;;;;;;;12.15;100.00;100524.94;7393482;19;20014;-82
2022/06/04 03:17:47;;;;;;;1.67;0.63;;;;;;;12.14;100.00;100517.84;7392540;19;20035;-83
2022/06/04 03:20:17;;;;;;;3.13;1.52;;;;;;;12.13;100.00;100522.63;7395283;19;20011;-83
2022/06/04 03:22:44;;;;;;;3.15;1.30;;;;;;;12.09;100.00;100516.44;7391853;19;20017;-83
2022/06/04 03:25:10;;;;;;;3.53;1.13;;;;;;;12.07;100.00;100524.53;7387819;19;20015;-84
2022/06/04 03:27:37;;;;;;;0.55;0.55;;;;;;;12.08;100.00;100534.44;7392096;19;20087;-83
2022/06/04 03:30:07;;;;;;;2.67;1.15;;;;;;;12.07;100.00;100530.09;7390313;19;20010;-83
2022/06/04 03:32:33;;;;;;;0.80;0.77;;;;;;;12.05;100.00;100531.81;7390593;19;20018;-83
2022/06/04 03:35:00;;;;;;;1.83;0.82;;;;;;;12.08;100.00;100536.47;7390971;19;20353;-83
2022/06/04 03:37:26;;;;;;;5.05;1.27;;;;;;;12.05;100.00;100529.78;7392113;19;20010;-83
2022/06/04 03:39:52;;;;;;;6.70;1.25;;;;;;;11.99;100.00;100526.09;7393430;19;20030;-83
2022/06/04 03:42:18;;;;;;;5.78;1.40;;;;;;;11.94;100.00;100532.31;7394231;19;20022;-83
2022/06/04 03:44:47;;;;;;;3.05;1.25;;;;;;;11.87;100.00;100535.41;7394114;19;20011;-83
2022/06/04 03:47:18;;;;;;;2.03;0.80;;;;;;;11.84;100.00;100535.59;7390192;19;20014;-83
2022/06/04 03:49:46;;;;;;;1.58;1.17;;;;;;;11.79;100.00;100548.16;7391067;19;20110;-83
2022/06/04 03:52:14;;;;;;;1.95;1.13;;;;;;;11.83;100.00;100553.56;7392084;19;20472;-83
2022/06/04 03:54:52;;;;;;;0.80;0.70;;;;;;;11.87;100.00;100549.38;7393339;19;20039;-83
2022/06/04 03:57:39;;;;;;;4.18;1.38;;;;;;;11.92;100.00;100557.13;7392111;19;20069;-83
2022/06/04 04:00:09;;;;;;;1.55;1.10;;;;;;;11.95;100.00;100556.16;7391489;19;20019;-83
2022/06/04 04:02:43;;;;;;;4.20;1.50;;;;;;;11.98;100.00;100538.50;7389858;19;20014;-83
2022/06/04 04:05:11;;;;;;;;;;;;;;;12.03;100.00;100545.47;7390431;19;20026;-83
2022/06/04 04:07:37;;;;;;;1.52;0.90;;;;;;;12.01;100.00;100545.94;7393099;19;20279;-82
2022/06/04 04:10:05;;;;;;;4.68;0.93;;;;;;;12.00;100.00;100546.38;7390831;19;20086;-83
2022/06/04 04:12:32;;;;;;;3.50;1.38;;;;;;;12.00;100.00;100541.59;7395175;19;20045;-84
2022/06/04 04:14:58;;;;;;;2.83;1.77;;;;;;;12.01;100.00;100543.16;7390752;19;20493;-84
2022/06/04 04:17:24;;;;;;;1.42;1.13;;;;;;;12.07;100.00;100540.50;7393255;19;20399;-85
2022/06/04 04:19:51;;;;;;;3.55;1.63;;;;;;;12.09;100.00;100544.38;7394358;19;20018;-84
2022/06/04 04:22:19;;;;;;;2.22;0.93;;;;;;;13.26;100.00;100533.88;7390593;19;20476;-84
2022/06/04 04:24:45;;;;;;;2.00;1.02;;;;;;;13.48;100.00;100545.53;7394296;19;20015;-84
2022/06/04 04:27:11;;;;;;;1.90;1.38;;;;;;;13.60;100.00;100541.66;7393787;19;20027;-84
2022/06/04 04:29:38;;;;;;;5.10;1.50;;;;;;;13.72;100.00;100547.50;7390913;19;20049;-84
2022/06/04 04:32:05;;;;;;;0.85;0.70;;;;;;;13.83;100.00;100537.28;7392944;19;20014;-83
2022/06/04 04:34:31;;;;;;;2.05;1.52;;;;;;;13.85;100.00;100540.38;7393170;19;20030;-83
2022/06/04 04:36:57;;;;;;;2.47;1.48;;;;;;;13.87;100.00;100549.06;7393138;19;20326;-85
2022/06/04 04:39:23;;;;;;;1.55;0.80;;;;;;;13.95;100.00;100549.44;7392816;19;20495;-84
2022/06/04 04:41:50;;;;;;;1.00;0.93;;;;;;;14.03;100.00;100556.22;7390754;19;20015;-81
2022/06/04 04:44:16;;;;;;;1.70;1.25;;;;;;;14.07;100.00;100560.38;7393399;19;20464;-83
2022/06/04 04:46:42;;;;;;;3.47;1.13;;;;;;;14.20;100.00;100565.69;7390793;19;20022;-84
2022/06/04 04:49:09;;;;;;;4.10;1.30;;;;;;;14.20;100.00;100560.09;7390854;19;20021;-83
2022/06/04 04:51:35;;;;;;;3.00;1.08;;;;;;;14.19;100.00;100564.13;7392171;19;20018;-82
2022/06/04 04:54:02;;;;;;;5.38;2.00;;;;;;;14.25;100.00;100573.44;7392573;19;20654;-83
2022/06/04 04:56:28;;;;;;;3.55;1.10;;;;;;;14.31;100.00;100566.66;7389663;19;20745;-83
2022/06/04 04:58:55;;;;;;;5.70;1.90;;;;;;;14.25;100.00;100568.56;7387961;19;20057;-82
2022/06/04 05:01:27;;;;;;;1.77;0.82;;;;;;;14.31;100.00;100568.72;7390323;19;20326;-83
2022/06/04 05:03:53;;;;;;;6.22;1.50;;;;;;;14.42;100.00;100566.84;7393327;19;20487;-83
2022/06/04 05:06:20;;;;;;;8.10;1.98;;;;;;;14.51;100.00;100565.22;7396898;19;20029;-83
2022/06/04 05:08:49;;;;;;;6.32;2.92;;;;;;;14.52;100.00;100567.53;7396901;19;20022;-83
2022/06/04 05:11:20;;;;;;;4.85;1.75;;;;;;;14.58;100.00;100550.78;7396612;19;20495;-81
2022/06/04 05:13:49;;;;;;;;;;;;;;;14.55;100.00;100555.34;7395820;19;20050;-84
2022/06/04 05:16:21;;;;;;;6.38;1.85;;;;;;;14.59;100.00;100558.72;7394236;19;19946;-83
2022/06/04 05:18:47;;;;;;;3.10;1.17;;;;;;;14.68;100.00;100555.03;7394802;19;20818;-86
2022/06/04 05:21:17;;;;;;;3.35;1.00;;;;;;;14.79;100.00;100561.56;7393113;19;20464;-84
2022/06/04 05:23:43;;;;;;;7.25;2.50;;;;;;;14.88;100.00;100569.09;7397348;19;20035;-84
2022/06/04 05:26:10;;;;;;;2.70;1.40;;;;;;;14.93;100.00;100571.97;7396974;19;20082;-83
2022/06/04 05:28:36;;;;;;;3.53;1.55;;;;;;;14.93;100.00;100560.75;7393354;19;20031;-83
2022/06/04 05:31:02;;;;;;;4.20;1.63;;;;;;;15.00;100.00;100563.16;7395541;19;20010;-82
2022/06/04 05:33:29;;;;;;;4.45;2.17;;;;;;;14.97;100.00;100563.34;7394914;19;20043;-83
2022/06/04 05:35:58;;;;;;;2.38;1.55;;;;;;;15.07;100.00;100568.34;7393117;19;20646;-82
2022/06/04 05:38:25;;;;;;;2.50;1.65;;;;;;;15.02;100.00;100562.66;7391039;19;20026;-81
2022/06/04 05:40:59;;;;;;;3.38;1.25;;;;;;;14.89;100.00;100565.03;7393264;19;20031;-81
2022/06/04 05:43:26;;;;;;;13.70;2.50;;;;;;;14.98;100.00;100574.09;7395449;19;20484;-81
2022/06/04 05:46:00;;;;;;;6.82;1.85;;;;;;;14.93;100.00;100569.19;7393159;19;20048;-82
2022/06/04 05:48:27;;;;;;;5.40;2.15;;;;;;;14.92;100.00;100583.69;7390567;19;20086;-81
2022/06/04 05:50:55;;;;;;;3.80;1.38;;;;;;;14.92;100.00;100587.25;7393595;19;20011;-82
2022/06/04 05:53:22;;;;;;;2.47;1.30;;;;;;;14.97;100.00;100582.97;7393886;19;20022;-81
2022/06/04 05:55:49;;;;;;;4.82;1.95;;;;;;;15.06;100.00;100592.06;7392756;19;20057;-81
2022/06/04 05:58:15;;;;;;;4.30;1.63;;;;;;;15.07;100.00;100587.97;7391698;19;20031;-82
2022/06/04 06:00:41;;;;;;;3.13;1.88;;;;;;;15.24;100.00;100593.06;7392126;19;20448;-81
2022/06/04 06:03:08;;;;;;;3.28;2.15;;;;;;;15.47;100.00;100592.13;7393011;19;20388;-82
2022/06/04 06:05:34;;;;;;;4.25;1.02;;;;;;;15.72;100.00;100591.41;7393716;19;20458;-82
2022/06/04 06:08:00;;;;;;;2.30;1.13;;;;;;;15.89;100.00;100569.91;7391740;19;20020;-82
2022/06/04 06:10:26;;;;;;;5.15;2.58;;;;;;;16.08;100.00;100596.41;7390720;19;20014;-82
2022/06/04 06:12:53;;;;;;;3.35;2.42;;;;;;;16.33;100.00;100601.22;7392643;19;20328;-82
2022/06/04 06:15:20;;;;;;;2.33;2.03;;;;;;;16.60;100.00;100605.59;7388068;19;20026;-81
2022/06/04 06:17:46;;;;;;;3.58;2.35;;;;;;;16.74;100.00;100584.97;7392669;19;20015;-83
2022/06/04 06:20:12;;;;;;;5.63;2.08;;;;;;;16.67;100.00;100603.09;7390830;19;20346;-82
2022/06/04 06:22:38;;;;;;;4.25;1.85;;;;;;;16.81;100.00;100600.63;7392049;19;20687;-81
2022/06/04 06:25:06;;;;;;;4.65;2.72;;;;;;;16.89;100.00;100596.84;7391018;19;20257;-81
2022/06/04 06:27:33;;;;;;;8.02;1.65;;;;;;;16.84;100.00;100591.19;7391405;19;20029;-81
2022/06/04 06:29:59;;;;;;;9.05;2.97;;;;;;;16.93;100.00;100596.63;7388292;19;20026;-81
2022/06/04 06:32:26;;;;;;;3.78;1.40;;;;;;;16.90;100.00;100592.00;7389852;19;20044;-81
2022/06/04 06:34:52;;;;;;;4.38;2.13;;;;;;;16.59;100.00;100599.19;7391287;19;20032;-82
2022/06/04 06:37:18;;;;;;;4.15;1.38;;;;;;;16.48;100.00;100607.50;7391275;19;20034;-81
2022/06/04 06:39:45;;;;;;;2.10;1.67;;;;;;;16.46;100.00;100607.22;7390373;19;20031;-81
2022/06/04 06:42:11;;;;;;;4.65;1.63;;;;;;;16.53;100.00;100601.19;7394389;19;20019;-82
2022/06/04 06:44:48;;;;;;;5.70;2.47;;;;;;;16.82;100.00;100597.34;7391895;19;20024;-82
2022/06/04 06:47:15;;;;;;;3.53;1.23;;;;;;;17.15;100.00;100593.97;7390439;19;20057;-82
2022/06/04 06:49:41;;;;;;;3.88;1.58;;;;;;;17.34;100.00;100592.28;7389243;19;20018;-82
2022/06/04 06:52:09;;;;;;;2.75;1.98;;;;;;;17.46;100.00;100599.47;7388352;19;20014;-82
2022/06/04 06:54:37;;;;;;;4.05;1.42;;;;;;;17.61;100.00;100600.09;7392158;19;20387;-81
2022/06/04 06:57:06;;;;;;;3.45;0.75;;;;;;;17.66;100.00;100607.81;7390448;19;20018;-81
2022/06/04 06:59:33;;;;;;;1.10;0.93;;;;;;;17.49;100.00;100592.84;7389333;19;20014;-83
2022/06/04 07:02:00;;;;;;;3.78;1.20;;;;;;;17.26;100.00;100596.84;7390916;19;20011;-82
2022/06/04 07:04:27;;;;;;;5.07;1.45;;;;;;;17.22;100.00;100590.66;7392605;19;20030;-83
2022/06/04 07:06:57;;;;;;;2.85;1.65;;;;;;;17.33;100.00;100596.34;7389954;19;20026;-82
2022/06/04 07:09:36;;;;;;;5.20;1.75;;;;;;;17.40;100.00;100595.88;7387699;19;20018;-82
2022/06/04 07:12:04;;;;;;;4.03;1.25;;;;;;;17.51;100.00;100593.16;7389717;19;20007;-81
2022/06/04 07:14:31;;;;;;;4.35;1.55;;;;;;;17.68;100.00;100588.34;7391846;19;20026;-82
2022/06/04 07:16:58;;;;;;;4.18;1.55;;;;;;;16.90;100.00;100586.38;7393213;19;20112;-83
2022/06/04 07:19:24;;;;;;;5.28;1.83;;;;;;;16.77;100.00;100595.25;7391040;19;20026;-83
2022/06/04 07:21:52;;;;;;;2.40;1.45;;;;;;;16.65;100.00;100596.44;7392957;19;20039;-83
2022/06/04 07:24:18;;;;;;;3.80;1.77;;;;;;;16.48;100.00;100607.50;7393917;19;20039;-84
2022/06/04 07:26:45;;;;;;;4.22;1.17;;;;;;;16.21;100.00;100596.78;7389467;19;20484;-83
2022/06/04 07:29:12;;;;;;;3.25;1.88;;;;;;;16.09;100.00;100592.31;7390746;19;20014;-83
2022/06/04 07:31:38;;;;;;;5.15;2.20;;;;;;;16.04;100.00;100598.66;7391427;19;20028;-82
2022/06/04 07:34:05;;;;;;;4.15;2.28;;;;;;;16.08;100.00;100590.78;7393426;19;20011;-82
2022/06/04 07:36:40;;;;;;;1.92;1.48;;;;;;;16.14;100.00;100597.22;7391588;19;20015;-82
2022/06/04 07:39:09;;;;;;;4.85;1.75;;;;;;;16.17;100.00;100610.28;7391154;19;20025;-82
2022/06/04 07:41:43;;;;;;;4.22;1.95;;;;;;;16.11;100.00;100625.56;7391994;19;20010;-82
2022/06/04 07:44:12;;;;;;;3.15;1.38;;;;;;;16.05;100.00;100619.84;7390215;19;20010;-83
2022/06/04 07:47:10;;;;;;;4.22;1.92;;;;;;;15.87;100.00;100611.75;7387013;19;20033;-85
2022/06/04 07:50:42;;;;;;;10.45;2.38;;;;;;;15.80;100.00;100624.19;7382496;19;20022;-82
2022/06/04 07:58:14;;;;;;;;;;;;;;;;;;;;;
2022/06/04 08:50:34;;;;;;;4.25;1.65;;;;;;;17.35;100.00;100616.31;7419180;19;20456;-82
2022/06/04 08:53:03;;;;;;;2.75;1.10;;;;;;;17.37;100.00;100614.53;7422752;19;20010;-80
2022/06/04 08:58:55;;;;;;;3.70;1.65;;;;;;;17.02;100.00;100616.16;7422165;19;20030;-79
2022/06/04 09:01:26;;;;;;;2.88;1.25;;;;;;;16.79;100.00;100636.94;7416782;19;20010;-80
2022/06/04 09:04:11;;;;;;;;;;;;;;;16.86;100.00;100625.22;7420442;19;20044;-80
2022/06/04 09:06:46;;;;;;;3.20;1.50;;;;;;;16.71;100.00;100621.78;7416825;19;19919;-80
2022/06/04 09:09:28;;;;;;;4.25;2.20;;;;;;;16.45;100.00;100619.75;7417977;19;20097;-80
2022/06/04 09:11:56;;;;;;;3.00;1.50;;;;;;;16.31;100.00;100620.63;7417225;19;20022;-80
2022/06/04 09:14:41;;;;;;;3.15;1.92;;;;;;;16.43;100.00;100622.31;7421756;19;20376;-80
2022/06/04 09:17:18;;;;;;;7.40;1.60;;;;;;;16.65;100.00;100616.88;7419289;19;20025;-80
2022/06/04 09:19:53;;;;;;;5.13;1.73;;;;;;;16.67;100.00;100628.41;7418270;19;20022;-81
2022/06/04 09:22:35;;;;;;;6.75;1.92;;;;;;;16.49;100.00;100640.00;7420053;19;20483;-80
2022/06/04 09:25:02;;;;;;;3.72;1.25;;;;;;;16.38;100.00;100619.41;7387667;19;20030;-82
2022/06/04 09:27:57;;;;;;;3.17;1.17;;;;;;;16.36;100.00;100610.72;7391676;19;20122;-82
2022/06/04 09:30:26;;;;;;;1.40;1.30;;;;;;;16.73;100.00;100611.59;7389376;19;20039;-81
2022/06/04 09:33:20;;;;;;;3.72;1.63;;;;;;;16.96;100.00;100607.66;7390490;19;20098;-82
2022/06/04 09:35:46;;;;;;;1.40;0.95;;;;;;;17.24;100.00;100621.88;7387622;19;20460;-81
2022/06/04 09:38:28;;;;;;;2.15;1.58;;;;;;;17.55;100.00;100618.25;7387741;19;20033;-81
2022/06/04 09:41:05;;;;;;;3.10;1.98;;;;;;;17.67;100.00;100620.59;7388648;19;20655;-80
2022/06/04 09:43:32;;;;;;;3.28;2.08;;;;;;;17.61;100.00;100635.94;7392112;19;20021;-82
2022/06/04 09:46:04;;;;;;;3.20;1.67;;;;;;;17.62;100.00;100634.66;7387779;19;20031;-80
2022/06/04 09:48:32;;;;;;;2.08;1.08;;;;;;;17.69;100.00;100634.19;7390095;19;20019;-80
2022/06/04 09:51:01;;;;;;;8.45;1.50;;;;;;;17.68;100.00;100653.13;7391727;19;20022;-81
2022/06/04 09:53:33;;;;;;;2.40;1.30;;;;;;;17.94;100.00;100634.03;7391072;19;20366;-81
2022/06/04 09:56:16;;;;;;;3.22;1.48;;;;;;;18.19;100.00;100629.50;7389978;19;20440;-81
2022/06/04 09:58:46;;;;;;;2.15;0.88;;;;;;;18.72;100.00;100623.66;7389731;19;20017;-80
2022/06/04 10:01:18;;;;;;;4.22;0.77;;;;;;;19.29;100.00;100614.63;7389209;19;20043;-80
2022/06/04 10:03:57;;;;;;;1.95;1.40;;;;;;;19.57;100.00;100618.16;7392579;19;20014;-81
2022/06/04 10:06:26;;;;;;;1.27;0.45;;;;;;;19.50;100.00;100618.69;7389787;19;20019;-81
2022/06/04 10:11:48;;;;;;;7.15;0.95;;;;;;;19.33;100.00;100611.50;7390430;19;20026;-80
2022/06/04 10:14:15;;;;;;;7.63;1.27;;;;;;;18.98;100.00;100617.75;7392454;19;20049;-81
2022/06/04 10:16:44;;;;;;;2.50;0.77;;;;;;;18.90;100.00;100622.38;7390554;19;20025;-81
2022/06/04 10:19:23;;;;;;;3.17;0.77;;;;;;;18.68;100.00;100628.81;7389292;19;20023;-81
2022/06/04 10:22:04;;;;;;;1.88;0.75;;;;;;;18.50;100.00;100617.25;7391205;19;20045;-81
2022/06/04 10:24:35;;;;;;;3.45;1.67;;;;;;;18.54;100.00;100612.09;7390963;19;20018;-80
2022/06/04 10:27:35;;;;;;;2.33;1.33;;;;;;;18.74;100.00;100620.31;7391415;19;20026;-81
2022/06/04 10:30:07;;;;;;;3.03;1.30;;;;;;;19.14;100.00;100625.44;7390075;19;20014;-80
2022/06/04 10:32:39;;;;;;;2.25;1.38;;;;;;;19.21;100.00;100613.59;7388786;19;20495;-80
2022/06/04 10:35:15;;;;;;;6.72;2.08;;;;;;;19.08;100.00;100635.94;7387508;19;20030;-81
2022/06/04 10:38:03;;;;;;;2.22;1.08;;;;;;;18.95;100.00;100630.06;7388809;19;20041;-80
2022/06/04 10:40:41;;;;;;;1.02;0.70;;;;;;;19.25;100.00;100639.50;7391711;19;20014;-81
2022/06/04 10:43:21;;;;;;;2.03;1.17;;;;;;;19.70;100.00;100648.66;7390881;19;20014;-80
2022/06/04 10:45:59;;;;;;;0.95;0.77;;;;;;;20.01;100.00;100639.03;7391956;19;20018;-80
2022/06/04 10:49:08;;;;;;;1.58;0.95;;;;;;;20.21;100.00;100644.31;7387924;19;20025;-80
2022/06/04 10:51:43;;;;;;;1.40;0.73;;;;;;;20.42;100.00;100656.81;7396899;19;20081;-81
2022/06/04 10:54:42;;;;;;;3.08;1.33;;;;;;;20.67;100.00;100644.28;7414137;19;20040;-82
2022/06/04 10:57:43;;;;;;;1.92;0.98;;;;;;;21.09;100.00;100646.50;7397717;19;20019;-82
2022/06/04 11:00:18;;;;;;;5.32;0.93;;;;;;;21.36;100.00;100646.75;7394647;19;20025;-81
2022/06/04 11:03:02;;;;;;;0.80;0.68;;;;;;;21.51;100.00;100644.25;7392507;19;20018;-81
2022/06/04 11:05:38;;;;;;;1.65;1.17;;;;;;;21.97;100.00;100655.34;7389898;19;20086;-81
2022/06/04 11:08:18;;;;;;;0.85;0.65;;;;;;;22.02;100.00;100650.88;7389951;19;20026;-81
2022/06/04 11:10:58;;;;;;;2.50;1.20;;;;;;;22.19;100.00;100652.19;7388504;19;20174;-81
2022/06/04 11:13:55;;;;;;;0.73;0.65;;;;;;;22.62;100.00;100660.63;7391896;19;20035;-81
2022/06/04 11:16:37;;;;;;;2.67;0.77;;;;;;;22.70;100.00;100652.25;7387186;19;20028;-81
2022/06/04 11:19:14;;;;;;;3.90;0.73;;;;;;;22.86;100.00;100639.84;7388509;19;20014;-82
2022/06/04 11:22:07;;;;;;;3.08;0.88;;;;;;;22.58;100.00;100646.72;7386835;19;20074;-81
2022/06/04 11:24:42;;;;;;;2.60;0.68;;;;;;;22.23;98.98;100643.38;7390962;19;20014;-81
2022/06/04 11:27:17;;;;;;;3.15;0.90;;;;;;;21.79;99.54;100639.78;7388524;19;20010;-81
2022/06/04 11:29:44;;;;;;;1.67;0.88;;;;;;;21.35;100.00;100645.22;7387249;19;20010;-80
2022/06/04 11:32:22;;;;;;;4.65;1.10;;;;;;;20.84;100.00;100650.56;7386493;19;20110;-81
2022/06/04 11:35:08;;;;;;;2.70;1.38;;;;;;;20.45;100.00;100652.13;7389339;19;20136;-81
2022/06/04 11:38:03;;;;;;;1.67;0.60;;;;;;;20.33;100.00;100657.13;7387920;19;20037;-82
2022/06/04 11:40:35;;;;;;;3.88;1.75;;;;;;;20.01;100.00;100639.78;7387121;19;20086;-81
2022/06/04 11:43:17;;;;;;;3.95;0.75;;;;;;;19.96;100.00;100634.16;7390804;19;20018;-81
2022/06/04 11:45:46;;;;;;;4.53;0.68;;;;;;;20.05;100.00;100625.38;7388577;19;20021;-81
2022/06/04 11:48:45;;;;;;;1.27;1.00;;;;;;;20.01;100.00;100622.81;7387529;19;20018;-82
2022/06/04 11:51:20;;;;;;;4.13;1.42;;;;;;;20.20;100.00;100622.97;7387096;19;20485;-83
2022/06/04 11:54:11;;;;;;;1.88;0.57;;;;;;;20.32;100.00;100625.22;7389190;19;20033;-83
2022/06/04 11:57:10;;;;;;;1.58;1.05;;;;;;;20.38;100.00;100628.00;7387707;19;20010;-83
2022/06/04 11:59:47;;;;;;;3.17;0.93;;;;;;;20.45;100.00;100633.09;7385175;19;20019;-82
2022/06/04 12:02:31;;;;;;;2.92;1.05;;;;;;;20.61;100.00;100628.63;7386703;19;20070;-82
2022/06/04 12:05:08;;;;;;;5.07;1.75;;;;;;;20.57;100.00;100639.47;7383512;19;20114;-83
2022/06/04 12:07:44;;;;;;;3.30;0.65;;;;;;;20.31;100.00;100628.59;7387490;19;20477;-82
2022/06/04 12:11:00;;;;;;;4.85;1.17;;;;;;;19.98;100.00;100632.34;7387118;19;20018;-81
2022/06/04 12:13:32;;;;;;;5.38;1.65;;;;;;;19.94;100.00;100619.78;7389030;19;20126;-82
2022/06/04 12:16:15;;;;;;;3.10;0.82;;;;;;;19.94;100.00;100626.22;7386551;19;20015;-81
2022/06/04 12:18:53;;;;;;;2.72;1.48;;;;;;;20.33;100.00;100638.09;7385771;19;20030;-81
2022/06/04 12:24:31;;;;;;;2.55;1.55;;;;;;;21.36;100.00;100626.91;7389435;19;20023;-82
2022/06/04 12:27:19;;;;;;;1.70;0.85;;;;;;;21.69;100.00;100623.69;7385221;19;20019;-81
2022/06/04 12:29:55;;;;;;;3.60;1.60;;;;;;;21.54;100.00;100623.34;7385021;19;20118;-82
2022/06/04 12:32:21;;;;;;;2.88;1.27;;;;;;;21.56;100.00;100618.69;7385528;19;20018;-82
2022/06/04 12:34:51;;;;;;;1.95;1.00;;;;;;;21.51;100.00;100630.84;7386990;19;20074;-82
2022/06/04 12:37:40;;;;;;;5.90;2.47;;;;;;;21.52;100.00;100614.63;7386027;19;20018;-81
2022/06/04 12:40:29;;;;;;;1.83;1.00;;;;;;;21.57;100.00;100606.03;7385961;19;20086;-82
2022/06/04 12:43:13;;;;;;;3.72;1.10;;;;;;;21.55;100.00;100607.91;7388449;19;20066;-82
2022/06/04 12:45:42;;;;;;;1.20;0.80;;;;;;;21.26;100.00;100614.41;7385512;19;20364;-83
2022/06/04 12:48:55;;;;;;;8.40;0.80;;;;;;;21.13;100.00;100607.34;7386547;19;20480;-83
2022/06/04 12:51:54;;;;;;;1.10;0.60;;;;;;;20.98;100.00;100600.50;7382683;19;20011;-82
2022/06/04 12:54:23;;;;;;;2.00;0.82;;;;;;;20.87;100.00;100589.28;7387039;19;20361;-84
2022/06/04 12:56:56;;;;;;;1.35;0.55;;;;;;;21.37;100.00;100585.94;7384745;19;20022;-85
2022/06/04 12:59:44;;;;;;;2.95;0.30;;;;;;;21.79;100.00;100587.97;7391770;19;20022;-84
2022/06/04 13:02:29;;;;;;;2.42;0.65;;;;;;;22.38;100.00;100599.03;7393633;19;20014;-84